createdAt,value
2017-06-12T00:00:10.837Z,0
2017-06-12T00:01:10.568Z,0
2017-06-12T00:02:10.621Z,0
2017-06-12T00:03:10.963Z,0
2017-06-12T00:04:10.706Z,0
2017-06-12T00:05:10.737Z,0
2017-06-12T00:06:10.786Z,0
2017-06-12T00:07:10.512Z,0
2017-06-12T00:08:10.563Z,0
2017-06-12T00:09:11.220Z,0
2017-06-12T00:10:10.648Z,0
2017-06-12T00:11:11.294Z,0
2017-06-12T00:12:11.038Z,0
2017-06-12T00:13:11.079Z,0
2017-06-12T00:14:11.125Z,0
2017-06-12T00:15:11.467Z,0
2017-06-12T00:16:11.198Z,0
2017-06-12T00:17:10.939Z,0
2017-06-12T00:18:11.284Z,0
2017-06-12T00:19:11.647Z,0
2017-06-12T00:20:11.368Z,0
2017-06-12T00:21:11.420Z,0
2017-06-12T00:22:11.147Z,0
2017-06-12T00:23:11.190Z,0
2017-06-12T00:24:11.236Z,0
2017-06-12T00:25:11.279Z,0
2017-06-12T00:26:11.657Z,0
2017-06-12T00:27:11.674Z,0
2017-06-12T00:28:12.018Z,0
2017-06-12T00:29:11.443Z,0
2017-06-12T00:30:11.494Z,0
2017-06-12T00:31:11.833Z,0
2017-06-12T00:32:12.191Z,0
2017-06-12T00:33:11.924Z,0
2017-06-12T00:34:11.658Z,0
2017-06-12T00:35:12.007Z,0
2017-06-12T00:36:12.670Z,0
2017-06-12T00:37:11.781Z,0
2017-06-12T00:38:12.369Z,0
2017-06-12T00:39:12.483Z,0
2017-06-12T00:40:12.225Z,0
2017-06-12T00:41:11.952Z,0
2017-06-12T00:42:12.303Z,0
2017-06-12T00:43:12.354Z,0
2017-06-12T00:44:12.081Z,0
2017-06-12T00:45:12.127Z,0
2017-06-12T00:46:12.165Z,0
2017-06-12T00:47:12.523Z,0
2017-06-12T00:48:12.572Z,0
2017-06-12T00:49:12.291Z,0
2017-06-12T00:50:12.350Z,0
2017-06-12T00:51:12.685Z,0
2017-06-12T00:52:12.417Z,0
2017-06-12T00:53:12.773Z,0
2017-06-12T00:54:12.513Z,0
2017-06-12T00:55:13.160Z,0
2017-06-12T00:56:12.587Z,0
2017-06-12T00:57:13.251Z,0
2017-06-12T00:58:12.674Z,0
2017-06-12T00:59:13.026Z,0
2017-06-12T01:00:12.755Z,0
2017-06-12T01:01:13.723Z,0
2017-06-12T01:02:13.764Z,0
2017-06-12T01:03:13.191Z,0
2017-06-12T01:04:12.934Z,0
2017-06-12T01:05:13.282Z,0
2017-06-12T01:06:13.321Z,0
2017-06-12T01:07:13.366Z,0
2017-06-12T01:08:13.401Z,0
2017-06-12T01:09:13.148Z,0
2017-06-12T01:10:13.181Z,0
2017-06-12T01:11:13.544Z,0
2017-06-12T01:12:13.267Z,0
2017-06-12T01:13:13.311Z,0
2017-06-12T01:14:13.968Z,0
2017-06-12T01:15:13.705Z,0
2017-06-12T01:16:14.056Z,0
2017-06-12T01:17:13.475Z,0
2017-06-12T01:18:13.827Z,0
2017-06-12T01:19:13.561Z,0
2017-06-12T01:20:14.529Z,0
2017-06-12T01:21:13.647Z,0
2017-06-12T01:22:14.003Z,0
2017-06-12T01:23:13.796Z,0
2017-06-12T01:24:14.082Z,0
2017-06-12T01:25:13.819Z,0
2017-06-12T01:26:14.162Z,0
2017-06-12T01:27:14.202Z,0
2017-06-12T01:28:14.251Z,0
2017-06-12T01:29:14.290Z,0
2017-06-12T01:30:14.331Z,0
2017-06-12T01:31:14.682Z,0
2017-06-12T01:32:14.423Z,0
2017-06-12T01:33:14.156Z,0
2017-06-12T01:34:14.195Z,0
2017-06-12T01:35:14.854Z,0
2017-06-12T01:36:14.274Z,0
2017-06-12T01:37:14.318Z,0
2017-06-12T01:38:14.692Z,0
2017-06-12T01:39:14.709Z,0
2017-06-12T01:40:14.447Z,0
2017-06-12T01:41:15.115Z,0
2017-06-12T01:42:14.841Z,0
2017-06-12T01:43:14.574Z,0
2017-06-12T01:44:14.929Z,0
2017-06-12T01:45:14.657Z,0
2017-06-12T01:46:14.701Z,0
2017-06-12T01:47:15.054Z,0
2017-06-12T01:48:14.782Z,0
2017-06-12T01:49:14.832Z,0
2017-06-12T01:50:15.175Z,0
2017-06-12T01:51:15.224Z,0
2017-06-12T01:52:14.953Z,0
2017-06-12T01:53:15.001Z,0
2017-06-12T01:54:15.046Z,0
2017-06-12T01:55:15.076Z,0
2017-06-12T01:56:15.742Z,0
2017-06-12T01:57:15.166Z,0
2017-06-12T01:58:15.521Z,0
2017-06-12T01:59:15.556Z,0
2017-06-12T02:00:15.595Z,0
2017-06-12T02:01:15.346Z,0
2017-06-12T02:02:15.676Z,0
2017-06-12T02:03:16.065Z,0
2017-06-12T02:04:15.781Z,0
2017-06-12T02:05:15.815Z,0
2017-06-12T02:06:15.541Z,0
2017-06-12T02:07:15.898Z,0
2017-06-12T02:08:15.950Z,0
2017-06-12T02:09:16.600Z,0
2017-06-12T02:10:16.030Z,0
2017-06-12T02:11:16.375Z,0
2017-06-12T02:12:15.800Z,0
2017-06-12T02:13:15.841Z,0
2017-06-12T02:14:16.184Z,0
2017-06-12T02:15:15.930Z,0
2017-06-12T02:16:16.281Z,0
2017-06-12T02:17:16.326Z,0
2017-06-12T02:18:16.053Z,0
2017-06-12T02:19:16.391Z,0
2017-06-12T02:20:16.450Z,0
2017-06-12T02:21:16.477Z,0
2017-06-12T02:22:16.220Z,0
2017-06-12T02:23:16.285Z,0
2017-06-12T02:24:16.604Z,0
2017-06-12T02:25:16.649Z,0
2017-06-12T02:26:16.999Z,0
2017-06-12T02:27:16.743Z,0
2017-06-12T02:28:16.504Z,0
2017-06-12T02:29:16.517Z,0
2017-06-12T02:30:17.176Z,0
2017-06-12T02:31:16.598Z,0
2017-06-12T02:32:16.967Z,0
2017-06-12T02:33:16.997Z,0
2017-06-12T02:34:17.050Z,0
2017-06-12T02:35:17.073Z,0
2017-06-12T02:36:16.816Z,0
2017-06-12T02:37:17.480Z,0
2017-06-12T02:38:16.897Z,0
2017-06-12T02:39:16.933Z,0
2017-06-12T02:40:17.282Z,0
2017-06-12T02:41:17.020Z,0
2017-06-12T02:42:17.096Z,0
2017-06-12T02:43:17.099Z,0
2017-06-12T02:44:17.448Z,0
2017-06-12T02:45:17.186Z,0
2017-06-12T02:46:17.225Z,0
2017-06-12T02:47:17.263Z,0
2017-06-12T02:48:17.309Z,0
2017-06-12T02:49:17.354Z,0
2017-06-12T02:50:17.390Z,0
2017-06-12T02:51:17.439Z,0
2017-06-12T02:52:17.788Z,0
2017-06-12T02:53:17.827Z,5
2017-06-12T02:54:17.891Z,5
2017-06-12T02:55:17.926Z,5
2017-06-12T02:56:17.965Z,5
2017-06-12T02:57:18.016Z,5
2017-06-12T02:58:17.732Z,5
2017-06-12T02:59:17.769Z,5
2017-06-12T03:00:17.806Z,5
2017-06-12T03:01:18.163Z,5
2017-06-12T03:02:18.206Z,5
2017-06-12T03:03:18.240Z,5
2017-06-12T03:04:17.983Z,5
2017-06-12T03:05:18.024Z,5
2017-06-12T03:06:18.380Z,5
2017-06-12T03:07:18.747Z,5
2017-06-12T03:08:18.450Z,5
2017-06-12T03:09:18.493Z,10
2017-06-12T03:10:18.889Z,10
2017-06-12T03:11:18.278Z,10
2017-06-12T03:12:18.619Z,10
2017-06-12T03:13:18.352Z,10
2017-06-12T03:14:18.707Z,10
2017-06-12T03:15:18.441Z,10
2017-06-12T03:16:18.786Z,10
2017-06-12T03:17:18.525Z,10
2017-06-12T03:18:18.866Z,10
2017-06-12T03:19:18.918Z,10
2017-06-12T03:20:18.956Z,10
2017-06-12T03:21:19.005Z,10
2017-06-12T03:22:19.349Z,10
2017-06-12T03:23:19.085Z,10
2017-06-12T03:24:18.812Z,10
2017-06-12T03:25:19.468Z,10
2017-06-12T03:26:18.896Z,10
2017-06-12T03:27:19.263Z,15
2017-06-12T03:28:18.976Z,15
2017-06-12T03:29:19.335Z,15
2017-06-12T03:30:19.068Z,15
2017-06-12T03:31:19.108Z,10
2017-06-12T03:32:19.771Z,10
2017-06-12T03:33:19.498Z,10
2017-06-12T03:34:19.546Z,10
2017-06-12T03:35:19.592Z,10
2017-06-12T03:36:19.940Z,10
2017-06-12T03:37:19.356Z,15
2017-06-12T03:38:19.627Z,15
2017-06-12T03:39:19.752Z,15
2017-06-12T03:40:20.416Z,15
2017-06-12T03:41:20.138Z,15
2017-06-12T03:42:19.881Z,15
2017-06-12T03:43:20.534Z,10
2017-06-12T03:44:19.657Z,10
2017-06-12T03:45:19.701Z,10
2017-06-12T03:46:20.044Z,10
2017-06-12T03:47:19.793Z,10
2017-06-12T03:48:19.819Z,10
2017-06-12T03:49:19.866Z,10
2017-06-12T03:50:19.923Z,15
2017-06-12T03:51:19.942Z,15
2017-06-12T03:52:20.447Z,25
2017-06-12T03:53:20.037Z,35
2017-06-12T03:54:20.072Z,40
2017-06-12T03:55:20.116Z,40
2017-06-12T03:56:20.160Z,35
2017-06-12T03:57:20.205Z,25
2017-06-12T03:58:20.556Z,20
2017-06-12T03:59:20.590Z,15
2017-06-12T04:00:20.323Z,10
2017-06-12T04:01:20.369Z,10
2017-06-12T04:02:21.048Z,5
2017-06-12T04:03:20.472Z,5
2017-06-12T04:04:20.808Z,5
2017-06-12T04:05:20.541Z,5
2017-06-12T04:06:20.578Z,5
2017-06-12T04:07:20.630Z,5
2017-06-12T04:08:21.585Z,5
2017-06-12T04:09:20.717Z,5
2017-06-12T04:10:21.058Z,5
2017-06-12T04:11:21.720Z,5
2017-06-12T04:12:20.839Z,10
2017-06-12T04:13:20.884Z,10
2017-06-12T04:14:21.227Z,10
2017-06-12T04:15:20.966Z,15
2017-06-12T04:16:21.936Z,20
2017-06-12T04:17:21.045Z,25
2017-06-12T04:18:21.397Z,25
2017-06-12T04:19:21.126Z,30
2017-06-12T04:20:21.174Z,35
2017-06-12T04:21:21.873Z,30
2017-06-12T04:22:22.173Z,30
2017-06-12T04:23:21.604Z,25
2017-06-12T04:24:21.335Z,30
2017-06-12T04:25:21.686Z,35
2017-06-12T04:26:21.432Z,40
2017-06-12T04:27:21.465Z,50
2017-06-12T04:28:21.532Z,55
2017-06-12T04:29:21.864Z,60
2017-06-12T04:30:21.621Z,70
2017-06-12T04:31:21.633Z,75
2017-06-12T04:32:21.978Z,80
2017-06-12T04:33:22.026Z,90
2017-06-12T04:34:21.761Z,100
2017-06-12T04:35:21.806Z,105
2017-06-12T04:36:22.153Z,115
2017-06-12T04:37:22.522Z,125
2017-06-12T04:38:22.234Z,135
2017-06-12T04:39:21.984Z,145
2017-06-12T04:40:22.323Z,155
2017-06-12T04:41:22.060Z,190
2017-06-12T04:42:22.400Z,190
2017-06-12T04:43:22.444Z,175
2017-06-12T04:44:22.491Z,205
2017-06-12T04:45:22.233Z,240
2017-06-12T04:46:22.575Z,410
2017-06-12T04:47:22.930Z,205
2017-06-12T04:48:22.970Z,560
2017-06-12T04:49:22.404Z,415
2017-06-12T04:50:23.056Z,240
2017-06-12T04:51:22.486Z,250
2017-06-12T04:52:23.139Z,280
2017-06-12T04:53:22.932Z,310
2017-06-12T04:54:23.226Z,355
2017-06-12T04:55:23.265Z,300
2017-06-12T04:56:23.009Z,285
2017-06-12T04:57:23.062Z,295
2017-06-12T04:58:23.096Z,300
2017-06-12T04:59:22.829Z,315
2017-06-12T05:00:22.876Z,335
2017-06-12T05:01:22.922Z,365
2017-06-12T05:02:22.970Z,420
2017-06-12T05:03:23.334Z,520
2017-06-12T05:04:23.066Z,270
2017-06-12T05:05:23.421Z,350
2017-06-12T05:06:23.302Z,440
2017-06-12T05:07:23.187Z,405
2017-06-12T05:08:23.223Z,380
2017-06-12T05:09:23.889Z,380
2017-06-12T05:10:23.328Z,400
2017-06-12T05:11:23.678Z,460
2017-06-12T05:12:23.720Z,490
2017-06-12T05:13:23.454Z,355
2017-06-12T05:14:23.499Z,370
2017-06-12T05:15:23.552Z,375
2017-06-12T05:16:23.963Z,355
2017-06-12T05:17:23.674Z,370
2017-06-12T05:18:23.703Z,360
2017-06-12T05:19:23.727Z,345
2017-06-12T05:20:24.077Z,370
2017-06-12T05:21:24.148Z,315
2017-06-12T05:22:24.180Z,315
2017-06-12T05:23:23.902Z,280
2017-06-12T05:24:23.988Z,240
2017-06-12T05:25:24.310Z,235
2017-06-12T05:26:24.345Z,215
2017-06-12T05:27:24.401Z,205
2017-06-12T05:28:24.737Z,205
2017-06-12T05:29:24.183Z,215
2017-06-12T05:30:24.523Z,245
2017-06-12T05:31:24.878Z,310
2017-06-12T05:32:24.309Z,300
2017-06-12T05:33:24.981Z,345
2017-06-12T05:34:24.713Z,370
2017-06-12T05:35:25.101Z,380
2017-06-12T05:36:24.834Z,665
2017-06-12T05:37:24.537Z,970
2017-06-12T05:38:24.570Z,1055
2017-06-12T05:39:24.624Z,1070
2017-06-12T05:40:25.282Z,1075
2017-06-12T05:41:25.162Z,1075
2017-06-12T05:42:24.867Z,1090
2017-06-12T05:43:24.802Z,1075
2017-06-12T05:44:24.853Z,265
2017-06-12T05:45:25.221Z,260
2017-06-12T05:46:24.947Z,290
2017-06-12T05:47:24.993Z,305
2017-06-12T05:48:25.060Z,315
2017-06-12T05:49:25.088Z,285
2017-06-12T05:50:25.704Z,285
2017-06-12T05:51:25.622Z,285
2017-06-12T05:52:25.889Z,280
2017-06-12T05:53:25.576Z,285
2017-06-12T05:54:26.066Z,300
2017-06-12T05:55:25.671Z,310
2017-06-12T05:56:25.729Z,285
2017-06-12T05:57:25.460Z,270
2017-06-12T05:58:26.126Z,230
2017-06-12T05:59:25.868Z,170
2017-06-12T06:00:25.591Z,130
2017-06-12T06:01:25.952Z,110
2017-06-12T06:02:26.058Z,125
2017-06-12T06:03:26.278Z,150
2017-06-12T06:04:26.787Z,165
2017-06-12T06:05:25.836Z,170
2017-06-12T06:06:25.895Z,205
2017-06-12T06:07:25.910Z,260
2017-06-12T06:08:26.261Z,365
2017-06-12T06:09:25.999Z,850
2017-06-12T06:10:26.352Z,420
2017-06-12T06:11:26.712Z,400
2017-06-12T06:12:26.451Z,1170
2017-06-12T06:13:26.486Z,875
2017-06-12T06:14:26.242Z,495
2017-06-12T06:15:26.301Z,645
2017-06-12T06:16:26.629Z,490
2017-06-12T06:17:26.987Z,510
2017-06-12T06:18:26.735Z,615
2017-06-12T06:19:26.768Z,1530
2017-06-12T06:20:26.849Z,1535
2017-06-12T06:21:26.619Z,1545
2017-06-12T06:22:27.231Z,1540
2017-06-12T06:23:27.298Z,1470
2017-06-12T06:24:26.726Z,1540
2017-06-12T06:25:27.142Z,1595
2017-06-12T06:26:26.799Z,1580
2017-06-12T06:27:27.154Z,1740
2017-06-12T06:28:26.896Z,970
2017-06-12T06:29:27.263Z,655
2017-06-12T06:30:27.029Z,1245
2017-06-12T06:31:27.056Z,1830
2017-06-12T06:32:27.714Z,580
2017-06-12T06:33:27.196Z,585
2017-06-12T06:34:27.248Z,830
2017-06-12T06:35:27.940Z,1560
2017-06-12T06:36:27.360Z,1450
2017-06-12T06:37:27.995Z,1490
2017-06-12T06:38:27.412Z,1575
2017-06-12T06:39:27.475Z,1600
2017-06-12T06:40:27.510Z,1620
2017-06-12T06:41:27.576Z,1635
2017-06-12T06:42:27.936Z,1660
2017-06-12T06:43:27.670Z,1670
2017-06-12T06:44:28.042Z,1645
2017-06-12T06:45:27.779Z,1650
2017-06-12T06:46:27.859Z,1665
2017-06-12T06:47:28.699Z,1680
2017-06-12T06:48:27.969Z,1675
2017-06-12T06:49:27.987Z,1630
2017-06-12T06:50:28.669Z,1590
2017-06-12T06:51:28.517Z,1630
2017-06-12T06:52:28.161Z,1590
2017-06-12T06:53:28.212Z,1705
2017-06-12T06:54:28.576Z,975
2017-06-12T06:55:28.934Z,1815
2017-06-12T06:56:28.988Z,1980
2017-06-12T06:57:28.732Z,905
2017-06-12T06:58:28.791Z,515
2017-06-12T06:59:28.840Z,690
2017-06-12T07:00:28.648Z,780
2017-06-12T07:01:28.947Z,1045
2017-06-12T07:02:28.732Z,1330
2017-06-12T07:03:28.751Z,550
2017-06-12T07:04:28.808Z,490
2017-06-12T07:05:28.853Z,465
2017-06-12T07:06:29.221Z,700
2017-06-12T07:07:28.963Z,870
2017-06-12T07:08:29.011Z,795
2017-06-12T07:09:29.754Z,780
2017-06-12T07:10:29.743Z,535
2017-06-12T07:11:30.329Z,520
2017-06-12T07:12:29.234Z,445
2017-06-12T07:13:29.580Z,465
2017-06-12T07:14:29.634Z,525
2017-06-12T07:15:29.680Z,850
2017-06-12T07:16:29.733Z,765
2017-06-12T07:17:29.776Z,585
2017-06-12T07:18:29.845Z,445
2017-06-12T07:19:29.570Z,400
2017-06-12T07:20:29.628Z,320
2017-06-12T07:21:29.675Z,315
2017-06-12T07:22:30.033Z,300
2017-06-12T07:23:29.763Z,335
2017-06-12T07:24:30.435Z,325
2017-06-12T07:25:29.904Z,360
2017-06-12T07:26:30.220Z,375
2017-06-12T07:27:29.959Z,440
2017-06-12T07:28:30.004Z,710
2017-06-12T07:29:30.056Z,1020
2017-06-12T07:30:30.104Z,1060
2017-06-12T07:31:30.461Z,1225
2017-06-12T07:32:30.206Z,1525
2017-06-12T07:33:30.248Z,1205
2017-06-12T07:34:30.304Z,1890
2017-06-12T07:35:30.648Z,655
2017-06-12T07:36:30.705Z,460
2017-06-12T07:37:31.064Z,325
2017-06-12T07:38:30.822Z,325
2017-06-12T07:39:30.853Z,315
2017-06-12T07:40:30.894Z,285
2017-06-12T07:41:30.636Z,290
2017-06-12T07:42:31.309Z,300
2017-06-12T07:43:31.378Z,430
2017-06-12T07:44:30.778Z,1480
2017-06-12T07:45:30.830Z,1505
2017-06-12T07:46:31.183Z,1825
2017-06-12T07:47:30.946Z,990
2017-06-12T07:48:31.608Z,990
2017-06-12T07:49:31.021Z,945
2017-06-12T07:50:31.380Z,1150
2017-06-12T07:51:31.431Z,1340
2017-06-12T07:52:31.482Z,650
2017-06-12T07:53:31.537Z,400
2017-06-12T07:54:31.501Z,300
2017-06-12T07:55:31.986Z,305
2017-06-12T07:56:31.679Z,295
2017-06-12T07:57:31.727Z,300
2017-06-12T07:58:31.832Z,310
2017-06-12T07:59:31.825Z,290
2017-06-12T08:00:31.867Z,300
2017-06-12T08:01:32.231Z,340
2017-06-12T08:02:31.661Z,415
2017-06-12T08:03:31.789Z,595
2017-06-12T08:04:32.094Z,610
2017-06-12T08:05:32.112Z,395
2017-06-12T08:06:31.854Z,345
2017-06-12T08:07:32.219Z,420
2017-06-12T08:08:31.952Z,690
2017-06-12T08:09:31.989Z,605
2017-06-12T08:10:32.040Z,875
2017-06-12T08:11:32.083Z,760
2017-06-12T08:12:32.453Z,715
2017-06-12T08:13:32.491Z,640
2017-06-12T08:14:32.226Z,565
2017-06-12T08:15:32.884Z,590
2017-06-12T08:16:32.321Z,550
2017-06-12T08:17:32.673Z,530
2017-06-12T08:18:32.417Z,510
2017-06-12T08:19:32.775Z,375
2017-06-12T08:20:32.817Z,370
2017-06-12T08:21:32.869Z,405
2017-06-12T08:22:33.224Z,430
2017-06-12T08:23:33.360Z,360
2017-06-12T08:24:33.027Z,480
2017-06-12T08:25:33.366Z,390
2017-06-12T08:26:33.421Z,530
2017-06-12T08:27:33.152Z,595
2017-06-12T08:28:33.216Z,425
2017-06-12T08:29:33.007Z,420
2017-06-12T08:30:32.985Z,545
2017-06-12T08:31:33.344Z,440
2017-06-12T08:32:33.080Z,820
2017-06-12T08:33:33.446Z,550
2017-06-12T08:34:33.175Z,870
2017-06-12T08:35:33.541Z,1175
2017-06-12T08:36:33.298Z,890
2017-06-12T08:37:33.626Z,2105
2017-06-12T08:38:34.213Z,780
2017-06-12T08:39:33.728Z,940
2017-06-12T08:40:33.464Z,375
2017-06-12T08:41:33.561Z,335
2017-06-12T08:42:34.178Z,350
2017-06-12T08:43:33.924Z,455
2017-06-12T08:44:33.967Z,565
2017-06-12T08:45:34.019Z,555
2017-06-12T08:46:33.751Z,430
2017-06-12T08:47:34.112Z,390
2017-06-12T08:48:33.847Z,495
2017-06-12T08:49:33.900Z,460
2017-06-12T08:50:33.954Z,640
2017-06-12T08:51:34.606Z,745
2017-06-12T08:52:34.361Z,580
2017-06-12T08:53:34.398Z,355
2017-06-12T08:54:34.453Z,275
2017-06-12T08:55:34.857Z,220
2017-06-12T08:56:34.246Z,265
2017-06-12T08:57:34.902Z,270
2017-06-12T08:58:35.446Z,290
2017-06-12T08:59:34.408Z,315
2017-06-12T09:00:34.432Z,335
2017-06-12T09:01:34.478Z,485
2017-06-12T09:02:34.831Z,830
2017-06-12T09:03:34.878Z,2305
2017-06-12T09:04:34.618Z,975
2017-06-12T09:05:34.696Z,2075
2017-06-12T09:06:34.715Z,1575
2017-06-12T09:07:35.117Z,515
2017-06-12T09:08:34.956Z,345
2017-06-12T09:09:34.876Z,365
2017-06-12T09:10:35.215Z,330
2017-06-12T09:11:35.593Z,355
2017-06-12T09:12:35.019Z,325
2017-06-12T09:13:35.365Z,260
2017-06-12T09:14:35.416Z,215
2017-06-12T09:15:35.142Z,140
2017-06-12T09:16:35.199Z,125
2017-06-12T09:17:35.236Z,200
2017-06-12T09:18:35.287Z,235
2017-06-12T09:19:35.329Z,245
2017-06-12T09:20:35.427Z,480
2017-06-12T09:21:35.425Z,235
2017-06-12T09:22:35.540Z,215
2017-06-12T09:23:35.826Z,320
2017-06-12T09:24:35.573Z,940
2017-06-12T09:25:35.609Z,400
2017-06-12T09:26:35.673Z,390
2017-06-12T09:27:36.396Z,290
2017-06-12T09:28:35.750Z,275
2017-06-12T09:29:36.392Z,285
2017-06-12T09:30:35.842Z,425
2017-06-12T09:31:36.228Z,470
2017-06-12T09:32:35.934Z,320
2017-06-12T09:33:36.289Z,280
2017-06-12T09:34:36.030Z,225
2017-06-12T09:35:36.075Z,195
2017-06-12T09:36:36.340Z,295
2017-06-12T09:37:36.170Z,230
2017-06-12T09:38:36.831Z,220
2017-06-12T09:39:36.589Z,220
2017-06-12T09:40:36.301Z,320
2017-06-12T09:41:36.346Z,260
2017-06-12T09:42:36.701Z,370
2017-06-12T09:43:36.874Z,1785
2017-06-12T09:44:37.099Z,1895
2017-06-12T09:45:36.833Z,2045
2017-06-12T09:46:36.621Z,2040
2017-06-12T09:47:36.927Z,1555
2017-06-12T09:48:36.979Z,2350
2017-06-12T09:49:36.718Z,2320
2017-06-12T09:50:37.071Z,2340
2017-06-12T09:51:36.811Z,2430
2017-06-12T09:52:36.981Z,2445
2017-06-12T09:53:37.235Z,2475
2017-06-12T09:54:37.264Z,2465
2017-06-12T09:55:37.114Z,2320
2017-06-12T09:56:37.363Z,2210
2017-06-12T09:57:37.128Z,2030
2017-06-12T09:58:37.157Z,2185
2017-06-12T09:59:37.532Z,2285
2017-06-12T10:00:37.567Z,2080
2017-06-12T10:01:37.938Z,2245
2017-06-12T10:02:37.367Z,2285
2017-06-12T10:03:37.438Z,2455
2017-06-12T10:04:37.771Z,2450
2017-06-12T10:05:37.531Z,2455
2017-06-12T10:06:37.875Z,2365
2017-06-12T10:07:37.631Z,2135
2017-06-12T10:08:38.305Z,1375
2017-06-12T10:09:37.729Z,2465
2017-06-12T10:10:37.782Z,1320
2017-06-12T10:11:38.154Z,2710
2017-06-12T10:12:38.518Z,2740
2017-06-12T10:13:38.400Z,2675
2017-06-12T10:14:38.626Z,2650
2017-06-12T10:15:38.055Z,2465
2017-06-12T10:16:38.416Z,2390
2017-06-12T10:17:38.253Z,2480
2017-06-12T10:18:38.526Z,2535
2017-06-12T10:19:38.360Z,2425
2017-06-12T10:20:38.324Z,2430
2017-06-12T10:21:38.687Z,2525
2017-06-12T10:22:38.462Z,2580
2017-06-12T10:23:39.409Z,2590
2017-06-12T10:24:38.554Z,2530
2017-06-12T10:25:38.614Z,2440
2017-06-12T10:26:38.661Z,2420
2017-06-12T10:27:38.711Z,2380
2017-06-12T10:28:38.802Z,2360
2017-06-12T10:29:38.831Z,2305
2017-06-12T10:30:39.540Z,2560
2017-06-12T10:31:38.928Z,2495
2017-06-12T10:32:39.296Z,2615
2017-06-12T10:33:39.050Z,2690
2017-06-12T10:34:40.362Z,2790
2017-06-12T10:35:39.526Z,2805
2017-06-12T10:36:39.512Z,2820
2017-06-12T10:37:39.365Z,2805
2017-06-12T10:38:39.321Z,2765
2017-06-12T10:39:39.395Z,2765
2017-06-12T10:40:39.739Z,2725
2017-06-12T10:41:39.493Z,2690
2017-06-12T10:42:39.851Z,2665
2017-06-12T10:43:39.910Z,2615
2017-06-12T10:44:39.961Z,2565
2017-06-12T10:45:40.019Z,2455
2017-06-12T10:46:40.388Z,2430
2017-06-12T10:47:39.830Z,2475
2017-06-12T10:48:39.879Z,2395
2017-06-12T10:49:39.929Z,2295
2017-06-12T10:50:40.007Z,2095
2017-06-12T10:51:40.361Z,1405
2017-06-12T10:52:40.111Z,755
2017-06-12T10:53:40.478Z,440
2017-06-12T10:54:40.546Z,485
2017-06-12T10:55:40.579Z,450
2017-06-12T10:56:40.325Z,430
2017-06-12T10:57:40.389Z,460
2017-06-12T10:58:40.428Z,465
2017-06-12T10:59:40.487Z,405
2017-06-12T11:00:40.870Z,585
2017-06-12T11:01:40.601Z,605
2017-06-12T11:02:40.656Z,680
2017-06-12T11:03:41.013Z,555
2017-06-12T11:04:41.374Z,430
2017-06-12T11:05:40.810Z,345
2017-06-12T11:06:41.163Z,285
2017-06-12T11:07:41.546Z,315
2017-06-12T11:08:41.290Z,280
2017-06-12T11:09:41.007Z,260
2017-06-12T11:10:41.683Z,360
2017-06-12T11:11:41.112Z,475
2017-06-12T11:12:41.470Z,460
2017-06-12T11:13:41.537Z,450
2017-06-12T11:14:41.570Z,395
2017-06-12T11:15:41.616Z,360
2017-06-12T11:16:41.662Z,415
2017-06-12T11:17:41.715Z,405
2017-06-12T11:18:41.779Z,430
2017-06-12T11:19:41.810Z,455
2017-06-12T11:20:41.869Z,430
2017-06-12T11:21:41.910Z,345
2017-06-12T11:22:41.653Z,365
2017-06-12T11:23:42.007Z,280
2017-06-12T11:24:42.374Z,320
2017-06-12T11:25:41.793Z,315
2017-06-12T11:26:42.156Z,450
2017-06-12T11:27:41.896Z,405
2017-06-12T11:28:42.247Z,325
2017-06-12T11:29:41.995Z,305
2017-06-12T11:30:42.072Z,310
2017-06-12T11:31:42.392Z,285
2017-06-12T11:32:42.740Z,280
2017-06-12T11:33:42.187Z,295
2017-06-12T11:34:42.548Z,260
2017-06-12T11:35:42.263Z,235
2017-06-12T11:36:42.618Z,225
2017-06-12T11:37:42.695Z,220
2017-06-12T11:38:42.791Z,215
2017-06-12T11:39:42.458Z,210
2017-06-12T11:40:42.816Z,205
2017-06-12T11:41:43.210Z,220
2017-06-12T11:42:43.207Z,220
2017-06-12T11:43:42.950Z,210
2017-06-12T11:44:42.691Z,235
2017-06-12T11:45:43.360Z,240
2017-06-12T11:46:43.722Z,210
2017-06-12T11:47:43.441Z,205
2017-06-12T11:48:43.496Z,215
2017-06-12T11:49:43.557Z,210
2017-06-12T11:50:42.971Z,215
2017-06-12T11:51:43.066Z,220
2017-06-12T11:52:43.404Z,205
2017-06-12T11:53:44.027Z,210
2017-06-12T11:54:43.199Z,235
2017-06-12T11:55:43.528Z,220
2017-06-12T11:56:43.248Z,205
2017-06-12T11:57:43.590Z,195
2017-06-12T11:58:43.943Z,190
2017-06-12T11:59:43.685Z,200
2017-06-12T12:00:43.418Z,205
2017-06-12T12:01:43.465Z,215
2017-06-12T12:02:44.138Z,205
2017-06-12T12:03:43.907Z,200
2017-06-12T12:04:43.599Z,190
2017-06-12T12:05:43.673Z,180
2017-06-12T12:06:43.707Z,175
2017-06-12T12:07:43.832Z,175
2017-06-12T12:08:44.118Z,180
2017-06-12T12:09:44.162Z,185
2017-06-12T12:10:44.188Z,180
2017-06-12T12:11:43.938Z,195
2017-06-12T12:12:44.274Z,195
2017-06-12T12:13:44.020Z,175
2017-06-12T12:14:44.374Z,170
2017-06-12T12:15:44.109Z,165
2017-06-12T12:16:44.469Z,165
2017-06-12T12:17:44.197Z,160
2017-06-12T12:18:44.242Z,160
2017-06-12T12:19:44.599Z,160
2017-06-12T12:20:44.955Z,160
2017-06-12T12:21:44.690Z,160
2017-06-12T12:22:44.468Z,160
2017-06-12T12:23:44.777Z,160
2017-06-12T12:24:44.840Z,155
2017-06-12T12:25:44.558Z,155
2017-06-12T12:26:44.613Z,155
2017-06-12T12:27:44.644Z,155
2017-06-12T12:28:44.694Z,150
2017-06-12T12:29:44.733Z,150
2017-06-12T12:30:44.811Z,145
2017-06-12T12:31:44.838Z,145
2017-06-12T12:32:45.195Z,145
2017-06-12T12:33:44.918Z,145
2017-06-12T12:34:45.274Z,145
2017-06-12T12:35:45.008Z,145
2017-06-12T12:36:45.362Z,145
2017-06-12T12:37:45.097Z,140
2017-06-12T12:38:45.762Z,140
2017-06-12T12:39:45.527Z,140
2017-06-12T12:40:45.655Z,140
2017-06-12T12:41:45.337Z,135
2017-06-12T12:42:45.684Z,140
2017-06-12T12:43:45.831Z,140
2017-06-12T12:44:45.745Z,140
2017-06-12T12:45:46.096Z,140
2017-06-12T12:46:45.539Z,145
2017-06-12T12:47:46.172Z,140
2017-06-12T12:48:45.592Z,140
2017-06-12T12:49:45.676Z,140
2017-06-12T12:50:45.885Z,135
2017-06-12T12:51:45.731Z,140
2017-06-12T12:52:45.782Z,140
2017-06-12T12:53:45.817Z,135
2017-06-12T12:54:46.171Z,135
2017-06-12T12:55:45.906Z,135
2017-06-12T12:56:45.953Z,135
2017-06-12T12:57:46.611Z,135
2017-06-12T12:58:46.346Z,135
2017-06-12T12:59:46.407Z,130
2017-06-12T13:00:46.434Z,130
2017-06-12T13:01:46.483Z,130
2017-06-12T13:02:46.533Z,130
2017-06-12T13:03:46.570Z,130
2017-06-12T13:04:46.310Z,130
2017-06-12T13:05:46.355Z,130
2017-06-12T13:06:46.413Z,130
2017-06-12T13:07:47.062Z,130
2017-06-12T13:08:46.492Z,130
2017-06-12T13:09:46.535Z,125
2017-06-12T13:10:46.573Z,125
2017-06-12T13:11:46.621Z,125
2017-06-12T13:12:46.981Z,125
2017-06-12T13:13:46.711Z,125
2017-06-12T13:14:47.370Z,125
2017-06-12T13:15:47.425Z,125
2017-06-12T13:16:47.163Z,125
2017-06-12T13:17:47.216Z,125
2017-06-12T13:18:46.934Z,120
2017-06-12T13:19:47.607Z,120
2017-06-12T13:20:47.027Z,120
2017-06-12T13:21:47.385Z,120
2017-06-12T13:22:47.732Z,120
2017-06-12T13:23:47.473Z,120
2017-06-12T13:24:47.823Z,120
2017-06-12T13:25:47.251Z,120
2017-06-12T13:26:47.598Z,120
2017-06-12T13:27:47.951Z,120
2017-06-12T13:28:47.379Z,120
2017-06-12T13:29:47.735Z,120
2017-06-12T13:30:48.092Z,125
2017-06-12T13:31:47.516Z,120
2017-06-12T13:32:48.183Z,120
2017-06-12T13:33:47.602Z,120
2017-06-12T13:34:47.646Z,120
2017-06-12T13:35:48.316Z,120
2017-06-12T13:36:48.055Z,120
2017-06-12T13:37:48.402Z,120
2017-06-12T13:38:48.129Z,115
2017-06-12T13:39:48.480Z,115
2017-06-12T13:40:48.535Z,115
2017-06-12T13:41:48.262Z,115
2017-06-12T13:42:48.006Z,115
2017-06-12T13:43:48.053Z,115
2017-06-12T13:44:49.013Z,115
2017-06-12T13:45:48.442Z,115
2017-06-12T13:46:48.489Z,115
2017-06-12T13:47:48.233Z,115
2017-06-12T13:48:48.262Z,115
2017-06-12T13:49:48.863Z,115
2017-06-12T13:50:48.671Z,115
2017-06-12T13:51:48.706Z,110
2017-06-12T13:52:49.363Z,115
2017-06-12T13:53:48.795Z,115
2017-06-12T13:54:48.847Z,115
2017-06-12T13:55:48.879Z,115
2017-06-12T13:56:48.933Z,115
2017-06-12T13:57:48.664Z,115
2017-06-12T13:58:49.019Z,115